sensor_id;sensor_type;location;lat;lon;timestamp;pressure;altitude;pressure_sealevel;temperature;humidity
16834;BME280;8533;48.426;10.868;2023-11-21T00:00:20;95552.34;;;6.46;100.00
16834;BME280;8533;48.426;10.868;2023-11-21T00:02:46;95597.81;;;6.61;100.00
16834;BME280;8533;48.426;10.868;2023-11-21T00:05:12;95490.53;;;6.15;100.00
16834;BME280;8533;48.426;10.868;2023-11-21T00:07:39;95577.59;;;6.63;100.00
16834;BME280;8533;48.426;10.868;2023-11-21T00:10:05;95471.03;;;6.01;100.00
16834;BME280;8533;48.426;10.868;2023-11-21T00:12:32;95486.34;;;5.74;100.00
16834;BME280;8533;48.426;10.868;2023-11-21T00:14:58;95442.41;;;5.84;100.00
16834;BME280;8533;48.426;10.868;2023-11-21T00:17:23;95560.41;;;6.62;100.00
16834;BME280;8533;48.426;10.868;2023-11-21T00:19:49;95499.50;;;6.24;100.00
16834;BME280;8533;48.426;10.868;2023-11-21T00:22:15;95486.72;;;6.06;100.00
16834;BME280;8533;48.426;10.868;2023-11-21T00:24:41;95394.59;;;5.52;100.00
16834;BME280;8533;48.426;10.868;2023-11-21T00:27:06;95536.78;;;6.46;100.00
16834;BME280;8533;48.426;10.868;2023-11-21T00:29:31;95562.56;;;6.65;100.00
16834;BME280;8533;48.426;10.868;2023-11-21T00:31:57;95470.91;;;6.07;100.00
16834;BME280;8533;48.426;10.868;2023-11-21T00:34:23;95470.13;;;6.07;100.00
16834;BME280;8533;48.426;10.868;2023-11-21T00:36:48;95503.44;;;6.27;100.00
16834;BME280;8533;48.426;10.868;2023-11-21T00:39:14;95572.16;;;6.64;100.00
16834;BME280;8533;48.426;10.868;2023-11-21T00:41:39;95555.22;;;6.62;100.00
16834;BME280;8533;48.426;10.868;2023-11-21T00:44:04;95310.47;;;5.03;100.00
16834;BME280;8533;48.426;10.868;2023-11-21T00:46:31;95341.63;;;5.19;100.00
16834;BME280;8533;48.426;10.868;2023-11-21T00:48:57;95296.09;;;4.83;100.00
16834;BME280;8533;48.426;10.868;2023-11-21T00:51:22;95549.53;;;6.48;100.00
16834;BME280;8533;48.426;10.868;2023-11-21T00:53:48;95521.22;;;6.35;100.00
16834;BME280;8533;48.426;10.868;2023-11-21T00:56:13;95559.53;;;6.56;100.00
16834;BME280;8533;48.426;10.868;2023-11-21T00:58:40;95431.47;;;5.54;100.00
16834;BME280;8533;48.426;10.868;2023-11-21T01:01:09;95557.06;;;6.49;100.00
16834;BME280;8533;48.426;10.868;2023-11-21T01:03:34;95556.28;;;6.49;100.00
16834;BME280;8533;48.426;10.868;2023-11-21T01:05:59;95560.16;;;6.46;100.00
16834;BME280;8533;48.426;10.868;2023-11-21T01:08:25;95563.31;;;6.48;100.00
16834;BME280;8533;48.426;10.868;2023-11-21T01:10:50;95359.22;;;5.17;100.00
16834;BME280;8533;48.426;10.868;2023-11-21T01:13:15;95561.72;;;6.47;100.00
16834;BME280;8533;48.426;10.868;2023-11-21T01:15:41;95554.75;;;6.36;100.00
16834;BME280;8533;48.426;10.868;2023-11-21T01:18:07;95563.75;;;6.45;100.00
16834;BME280;8533;48.426;10.868;2023-11-21T01:20:34;95456.00;;;5.74;100.00
16834;BME280;8533;48.426;10.868;2023-11-21T01:22:59;95568.16;;;6.45;100.00
16834;BME280;8533;48.426;10.868;2023-11-21T01:25:25;95481.91;;;5.86;100.00
16834;BME280;8533;48.426;10.868;2023-11-21T01:27:51;95576.97;;;6.44;100.00
16834;BME280;8533;48.426;10.868;2023-11-21T01:30:16;95567.84;;;6.41;100.00
16834;BME280;8533;48.426;10.868;2023-11-21T01:32:41;95571.22;;;6.42;100.00
16834;BME280;8533;48.426;10.868;2023-11-21T01:35:08;95519.97;;;6.09;100.00
16834;BME280;8533;48.426;10.868;2023-11-21T01:37:34;95575.09;;;6.39;100.00
16834;BME280;8533;48.426;10.868;2023-11-21T01:40:00;95565.16;;;6.36;100.00
16834;BME280;8533;48.426;10.868;2023-11-21T01:42:26;95510.44;;;5.98;100.00
16834;BME280;8533;48.426;10.868;2023-11-21T01:44:52;95557.59;;;6.35;100.00
16834;BME280;8533;48.426;10.868;2023-11-21T01:47:19;95515.72;;;6.03;100.00
16834;BME280;8533;48.426;10.868;2023-11-21T01:49:46;95558.88;;;6.32;100.00
16834;BME280;8533;48.426;10.868;2023-11-21T01:52:12;95592.38;;;6.34;100.00
16834;BME280;8533;48.426;10.868;2023-11-21T01:54:38;95565.59;;;6.33;100.00
16834;BME280;8533;48.426;10.868;2023-11-21T01:57:05;95362.09;;;4.92;100.00
16834;BME280;8533;48.426;10.868;2023-11-21T01:59:38;95463.69;;;5.69;100.00
16834;BME280;8533;48.426;10.868;2023-11-21T02:02:07;95556.81;;;6.34;100.00
16834;BME280;8533;48.426;10.868;2023-11-21T02:04:33;95516.94;;;6.12;100.00
16834;BME280;8533;48.426;10.868;2023-11-21T02:06:59;95306.84;;;4.64;100.00
16834;BME280;8533;48.426;10.868;2023-11-21T02:09:26;95307.84;;;4.74;100.00
16834;BME280;8533;48.426;10.868;2023-11-21T02:11:53;95441.72;;;5.60;100.00
16834;BME280;8533;48.426;10.868;2023-11-21T02:14:19;95574.97;;;6.34;100.00
16834;BME280;8533;48.426;10.868;2023-11-21T02:16:50;95500.38;;;6.01;100.00
16834;BME280;8533;48.426;10.868;2023-11-21T02:19:18;95565.88;;;6.32;100.00
16834;BME280;8533;48.426;10.868;2023-11-21T02:21:50;95514.91;;;6.14;100.00
16834;BME280;8533;48.426;10.868;2023-11-21T02:24:23;95394.31;;;5.36;100.00
16834;BME280;8533;48.426;10.868;2023-11-21T02:26:49;95523.53;;;6.31;100.00
16834;BME280;8533;48.426;10.868;2023-11-21T02:29:18;95475.22;;;6.02;100.00
16834;BME280;8533;48.426;10.868;2023-11-21T02:31:44;95451.53;;;5.87;100.00
16834;BME280;8533;48.426;10.868;2023-11-21T02:34:17;95473.41;;;6.02;100.00
16834;BME280;8533;48.426;10.868;2023-11-21T02:36:45;95374.50;;;5.30;100.00
16834;BME280;8533;48.426;10.868;2023-11-21T02:39:11;95441.91;;;5.70;100.00
16834;BME280;8533;48.426;10.868;2023-11-21T02:41:39;95402.22;;;5.42;100.00
16834;BME280;8533;48.426;10.868;2023-11-21T02:44:06;95423.66;;;5.65;100.00
16834;BME280;8533;48.426;10.868;2023-11-21T02:46:33;95520.66;;;6.33;100.00
16834;BME280;8533;48.426;10.868;2023-11-21T02:49:00;95442.69;;;5.71;100.00
16834;BME280;8533;48.426;10.868;2023-11-21T02:51:25;95418.34;;;5.72;100.00
16834;BME280;8533;48.426;10.868;2023-11-21T02:53:50;95513.38;;;6.30;100.00
16834;BME280;8533;48.426;10.868;2023-11-21T02:56:17;95361.69;;;5.24;100.00
16834;BME280;8533;48.426;10.868;2023-11-21T02:58:43;95427.59;;;5.68;100.00
16834;BME280;8533;48.426;10.868;2023-11-21T03:01:09;95510.00;;;6.18;100.00
16834;BME280;8533;48.426;10.868;2023-11-21T03:03:36;95443.25;;;5.33;100.00
16834;BME280;8533;48.426;10.868;2023-11-21T03:06:06;95458.22;;;5.83;100.00
16834;BME280;8533;48.426;10.868;2023-11-21T03:08:32;95504.41;;;6.09;100.00
16834;BME280;8533;48.426;10.868;2023-11-21T03:10:58;95508.28;;;6.06;100.00
16834;BME280;8533;48.426;10.868;2023-11-21T03:13:23;95506.91;;;6.04;100.00
16834;BME280;8533;48.426;10.868;2023-11-21T03:15:48;95437.69;;;5.53;100.00
16834;BME280;8533;48.426;10.868;2023-11-21T03:18:14;95512.56;;;6.01;100.00
16834;BME280;8533;48.426;10.868;2023-11-21T03:20:39;95507.38;;;6.01;100.00
16834;BME280;8533;48.426;10.868;2023-11-21T03:23:04;95504.78;;;6.01;100.00
16834;BME280;8533;48.426;10.868;2023-11-21T03:25:30;95526.59;;;6.00;100.00
16834;BME280;8533;48.426;10.868;2023-11-21T03:27:56;95490.16;;;5.83;100.00
16834;BME280;8533;48.426;10.868;2023-11-21T03:30:21;95513.28;;;5.96;100.00
16834;BME280;8533;48.426;10.868;2023-11-21T03:32:47;95066.41;;;3.00;100.00
16834;BME280;8533;48.426;10.868;2023-11-21T03:35:12;95403.50;;;5.16;100.00
16834;BME280;8533;48.426;10.868;2023-11-21T03:37:37;95514.72;;;5.92;100.00
16834;BME280;8533;48.426;10.868;2023-11-21T03:40:07;95508.78;;;5.92;100.00
16834;BME280;8533;48.426;10.868;2023-11-21T03:42:33;95032.41;;;2.80;100.00
16834;BME280;8533;48.426;10.868;2023-11-21T03:44:58;95507.09;;;5.74;100.00
16834;BME280;8533;48.426;10.868;2023-11-21T03:47:24;95392.28;;;4.98;100.00
16834;BME280;8533;48.426;10.868;2023-11-21T03:49:49;95524.81;;;5.89;100.00
16834;BME280;8533;48.426;10.868;2023-11-21T03:52:15;95425.13;;;5.21;100.00
16834;BME280;8533;48.426;10.868;2023-11-21T03:54:40;95439.09;;;5.32;100.00
16834;BME280;8533;48.426;10.868;2023-11-21T03:57:05;95461.28;;;5.51;100.00
16834;BME280;8533;48.426;10.868;2023-11-21T03:59:31;95525.47;;;5.96;100.00
16834;BME280;8533;48.426;10.868;2023-11-21T04:01:56;95522.06;;;5.95;100.00
16834;BME280;8533;48.426;10.868;2023-11-21T04:04:22;95526.03;;;5.98;100.00
16834;BME280;8533;48.426;10.868;2023-11-21T04:06:47;95492.34;;;5.63;100.00
16834;BME280;8533;48.426;10.868;2023-11-21T04:09:13;95467.47;;;5.50;100.00
16834;BME280;8533;48.426;10.868;2023-11-21T04:11:38;95527.34;;;6.00;100.00
16834;BME280;8533;48.426;10.868;2023-11-21T04:14:03;95485.00;;;5.71;100.00
16834;BME280;8533;48.426;10.868;2023-11-21T04:16:29;95428.81;;;5.37;100.00
16834;BME280;8533;48.426;10.868;2023-11-21T04:18:54;95385.06;;;4.89;100.00
16834;BME280;8533;48.426;10.868;2023-11-21T04:21:19;95547.44;;;6.05;100.00
16834;BME280;8533;48.426;10.868;2023-11-21T04:23:45;95529.25;;;6.05;100.00
16834;BME280;8533;48.426;10.868;2023-11-21T04:26:10;95487.00;;;5.81;100.00
16834;BME280;8533;48.426;10.868;2023-11-21T04:28:35;95532.97;;;6.09;100.00
16834;BME280;8533;48.426;10.868;2023-11-21T04:31:01;95534.53;;;6.10;100.00
16834;BME280;8533;48.426;10.868;2023-11-21T04:33:26;95541.31;;;6.11;100.00
16834;BME280;8533;48.426;10.868;2023-11-21T04:35:51;95491.97;;;5.83;100.00
16834;BME280;8533;48.426;10.868;2023-11-21T04:38:17;95476.19;;;5.72;100.00
16834;BME280;8533;48.426;10.868;2023-11-21T04:40:42;95539.28;;;6.13;100.00
16834;BME280;8533;48.426;10.868;2023-11-21T04:43:07;95439.72;;;5.51;100.00
16834;BME280;8533;48.426;10.868;2023-11-21T04:45:33;95538.16;;;6.09;100.00
16834;BME280;8533;48.426;10.868;2023-11-21T04:47:58;95537.38;;;6.08;100.00
16834;BME280;8533;48.426;10.868;2023-11-21T04:50:23;95369.41;;;4.95;100.00
16834;BME280;8533;48.426;10.868;2023-11-21T04:52:52;95348.28;;;4.75;100.00
16834;BME280;8533;48.426;10.868;2023-11-21T04:55:17;95551.06;;;6.04;100.00
16834;BME280;8533;48.426;10.868;2023-11-21T04:57:42;95384.28;;;5.00;100.00
16834;BME280;8533;48.426;10.868;2023-11-21T05:00:09;95543.72;;;6.01;100.00
16834;BME280;8533;48.426;10.868;2023-11-21T05:02:34;95568.13;;;6.00;100.00
16834;BME280;8533;48.426;10.868;2023-11-21T05:05:00;95249.97;;;4.05;100.00
16834;BME280;8533;48.426;10.868;2023-11-21T05:07:26;95558.03;;;6.03;100.00
16834;BME280;8533;48.426;10.868;2023-11-21T05:09:57;95312.41;;;4.44;100.00
16834;BME280;8533;48.426;10.868;2023-11-21T05:12:22;95559.97;;;6.08;100.00
16834;BME280;8533;48.426;10.868;2023-11-21T05:14:51;95476.63;;;5.41;100.00
16834;BME280;8533;48.426;10.868;2023-11-21T05:17:16;95517.66;;;5.84;100.00
16834;BME280;8533;48.426;10.868;2023-11-21T05:19:42;95560.50;;;6.10;100.00
16834;BME280;8533;48.426;10.868;2023-11-21T05:22:08;95559.72;;;6.09;100.00
16834;BME280;8533;48.426;10.868;2023-11-21T05:24:33;95431.44;;;5.25;100.00
16834;BME280;8533;48.426;10.868;2023-11-21T05:26:59;95560.72;;;6.08;100.00
16834;BME280;8533;48.426;10.868;2023-11-21T05:29:24;95555.78;;;6.07;100.00
16834;BME280;8533;48.426;10.868;2023-11-21T05:31:50;95565.69;;;6.10;100.00
16834;BME280;8533;48.426;10.868;2023-11-21T05:34:16;95559.41;;;6.06;100.00
16834;BME280;8533;48.426;10.868;2023-11-21T05:36:43;95586.69;;;6.08;100.00
16834;BME280;8533;48.426;10.868;2023-11-21T05:39:11;95569.31;;;6.09;100.00
16834;BME280;8533;48.426;10.868;2023-11-21T05:41:36;95564.91;;;6.09;100.00
16834;BME280;8533;48.426;10.868;2023-11-21T05:44:01;95575.28;;;6.09;100.00
16834;BME280;8533;48.426;10.868;2023-11-21T05:46:27;95575.53;;;6.08;100.00
16834;BME280;8533;48.426;10.868;2023-11-21T05:48:52;95599.34;;;6.05;100.00
16834;BME280;8533;48.426;10.868;2023-11-21T05:51:17;95486.94;;;5.53;100.00
16834;BME280;8533;48.426;10.868;2023-11-21T05:53:43;95572.59;;;6.04;100.00
16834;BME280;8533;48.426;10.868;2023-11-21T05:56:08;95599.81;;;6.02;100.00
16834;BME280;8533;48.426;10.868;2023-11-21T05:58:34;95443.19;;;5.05;100.00
16834;BME280;8533;48.426;10.868;2023-11-21T06:00:59;95407.38;;;4.90;100.00
16834;BME280;8533;48.426;10.868;2023-11-21T06:03:24;95546.56;;;5.76;100.00
16834;BME280;8533;48.426;10.868;2023-11-21T06:05:50;95360.47;;;4.51;100.00
16834;BME280;8533;48.426;10.868;2023-11-21T06:08:15;95582.91;;;5.88;100.00
16834;BME280;8533;48.426;10.868;2023-11-21T06:10:42;95575.78;;;5.83;100.00
16834;BME280;8533;48.426;10.868;2023-11-21T06:13:08;95416.19;;;4.77;100.00
16834;BME280;8533;48.426;10.868;2023-11-21T06:15:35;95573.31;;;5.76;100.00
16834;BME280;8533;48.426;10.868;2023-11-21T06:18:00;95585.72;;;5.74;100.00
16834;BME280;8533;48.426;10.868;2023-11-21T06:20:26;95578.97;;;5.73;100.00
16834;BME280;8533;48.426;10.868;2023-11-21T06:22:51;95589.56;;;5.72;100.00
16834;BME280;8533;48.426;10.868;2023-11-21T06:25:17;95529.28;;;5.30;100.00
16834;BME280;8533;48.426;10.868;2023-11-21T06:27:46;95520.25;;;5.21;100.00
16834;BME280;8533;48.426;10.868;2023-11-21T06:30:13;95589.69;;;5.65;100.00
16834;BME280;8533;48.426;10.868;2023-11-21T06:32:41;95595.66;;;5.66;100.00
16834;BME280;8533;48.426;10.868;2023-11-21T06:35:07;95545.50;;;5.37;100.00
16834;BME280;8533;48.426;10.868;2023-11-21T06:37:35;95614.63;;;5.66;100.00
16834;BME280;8533;48.426;10.868;2023-11-21T06:40:01;95598.50;;;5.64;100.00
16834;BME280;8533;48.426;10.868;2023-11-21T06:42:29;95602.09;;;5.63;100.00
16834;BME280;8533;48.426;10.868;2023-11-21T06:44:54;95605.69;;;5.62;100.00
16834;BME280;8533;48.426;10.868;2023-11-21T06:47:22;95609.66;;;5.65;100.00
16834;BME280;8533;48.426;10.868;2023-11-21T06:49:50;95625.44;;;5.63;100.00
16834;BME280;8533;48.426;10.868;2023-11-21T06:52:16;95538.75;;;5.13;100.00
16834;BME280;8533;48.426;10.868;2023-11-21T06:54:42;95620.25;;;5.63;100.00
16834;BME280;8533;48.426;10.868;2023-11-21T06:57:07;95621.03;;;5.64;100.00
16834;BME280;8533;48.426;10.868;2023-11-21T06:59:33;95634.22;;;5.62;100.00
16834;BME280;8533;48.426;10.868;2023-11-21T07:01:58;95575.63;;;5.26;100.00
16834;BME280;8533;48.426;10.868;2023-11-21T07:04:24;95627.38;;;5.56;100.00
16834;BME280;8533;48.426;10.868;2023-11-21T07:06:51;95630.53;;;5.58;100.00
16834;BME280;8533;48.426;10.868;2023-11-21T07:09:16;95631.53;;;5.57;100.00
16834;BME280;8533;48.426;10.868;2023-11-21T07:11:42;95606.06;;;5.43;100.00
16834;BME280;8533;48.426;10.868;2023-11-21T07:14:07;95632.66;;;5.61;100.00
16834;BME280;8533;48.426;10.868;2023-11-21T07:16:37;95606.59;;;5.45;100.00
16834;BME280;8533;48.426;10.868;2023-11-21T07:19:05;95586.31;;;5.30;100.00
16834;BME280;8533;48.426;10.868;2023-11-21T07:21:36;95638.19;;;5.65;100.00
16834;BME280;8533;48.426;10.868;2023-11-21T07:24:03;95643.16;;;5.66;100.00
16834;BME280;8533;48.426;10.868;2023-11-21T07:26:29;95584.28;;;5.32;100.00
16834;BME280;8533;48.426;10.868;2023-11-21T07:28:54;95618.22;;;5.54;100.00
16834;BME280;8533;48.426;10.868;2023-11-21T07:31:20;95563.00;;;5.18;100.00
16834;BME280;8533;48.426;10.868;2023-11-21T07:33:47;95659.50;;;5.79;100.00
16834;BME280;8533;48.426;10.868;2023-11-21T07:36:13;95623.84;;;5.62;100.00
16834;BME280;8533;48.426;10.868;2023-11-21T07:38:39;95677.31;;;5.87;100.00
16834;BME280;8533;48.426;10.868;2023-11-21T07:41:05;95668.09;;;5.91;100.00
16834;BME280;8533;48.426;10.868;2023-11-21T07:43:30;95656.25;;;5.95;100.00
16834;BME280;8533;48.426;10.868;2023-11-21T07:46:01;95638.28;;;5.82;100.00
16834;BME280;8533;48.426;10.868;2023-11-21T07:48:28;95669.44;;;6.05;100.00
16834;BME280;8533;48.426;10.868;2023-11-21T07:50:53;95630.03;;;5.85;100.00
16834;BME280;8533;48.426;10.868;2023-11-21T07:53:18;95685.91;;;6.22;100.00
16834;BME280;8533;48.426;10.868;2023-11-21T07:55:44;95682.38;;;6.28;100.00
16834;BME280;8533;48.426;10.868;2023-11-21T07:58:10;95682.47;;;6.45;100.00
16834;BME280;8533;48.426;10.868;2023-11-21T08:00:38;95687.75;;;6.50;100.00
16834;BME280;8533;48.426;10.868;2023-11-21T08:03:04;95684.47;;;6.55;100.00
16834;BME280;8533;48.426;10.868;2023-11-21T08:05:30;95688.19;;;6.59;100.00
16834;BME280;8533;48.426;10.868;2023-11-21T08:07:56;95583.91;;;5.98;100.00
16834;BME280;8533;48.426;10.868;2023-11-21T08:10:21;95677.56;;;6.60;100.00
16834;BME280;8533;48.426;10.868;2023-11-21T08:12:47;95687.94;;;6.72;100.00
16834;BME280;8533;48.426;10.868;2023-11-21T08:15:13;95635.94;;;6.43;100.00
16834;BME280;8533;48.426;10.868;2023-11-21T08:17:39;95583.41;;;6.13;100.00
16834;BME280;8533;48.426;10.868;2023-11-21T08:20:05;95623.91;;;6.26;100.00
16834;BME280;8533;48.426;10.868;2023-11-21T08:22:31;95633.75;;;6.52;100.00
16834;BME280;8533;48.426;10.868;2023-11-21T08:24:56;95697.59;;;6.88;100.00
16834;BME280;8533;48.426;10.868;2023-11-21T08:27:22;95565.69;;;6.10;100.00
16834;BME280;8533;48.426;10.868;2023-11-21T08:29:47;95671.44;;;6.95;100.00
16834;BME280;8533;48.426;10.868;2023-11-21T08:32:12;95698.69;;;7.20;100.00
16834;BME280;8533;48.426;10.868;2023-11-21T08:34:38;95714.94;;;7.27;100.00
16834;BME280;8533;48.426;10.868;2023-11-21T08:37:05;95643.06;;;6.93;100.00
16834;BME280;8533;48.426;10.868;2023-11-21T08:39:30;95698.16;;;7.35;100.00
16834;BME280;8533;48.426;10.868;2023-11-21T08:41:57;95698.06;;;7.47;100.00
16834;BME280;8533;48.426;10.868;2023-11-21T08:44:22;95701.78;;;7.51;100.00
16834;BME280;8533;48.426;10.868;2023-11-21T08:46:48;95704.38;;;7.51;100.00
16834;BME280;8533;48.426;10.868;2023-11-21T08:49:14;95704.69;;;7.54;100.00
16834;BME280;8533;48.426;10.868;2023-11-21T08:51:40;95727.88;;;7.56;100.00
16834;BME280;8533;48.426;10.868;2023-11-21T08:54:06;95725.28;;;7.56;100.00
16834;BME280;8533;48.426;10.868;2023-11-21T08:56:34;95717.00;;;7.59;100.00
16834;BME280;8533;48.426;10.868;2023-11-21T08:58:59;95552.78;;;6.55;100.00
16834;BME280;8533;48.426;10.868;2023-11-21T09:01:27;95725.59;;;7.76;100.00
16834;BME280;8533;48.426;10.868;2023-11-21T09:03:53;95725.91;;;7.80;100.00
16834;BME280;8533;48.426;10.868;2023-11-21T09:06:18;95735.63;;;7.84;100.00
16834;BME280;8533;48.426;10.868;2023-11-21T09:08:44;95732.22;;;7.84;100.00
16834;BME280;8533;48.426;10.868;2023-11-21T09:11:09;95699.19;;;7.51;100.00
16834;BME280;8533;48.426;10.868;2023-11-21T09:13:35;95736.66;;;7.83;100.00
16834;BME280;8533;48.426;10.868;2023-11-21T09:16:01;95737.75;;;7.87;100.00
16834;BME280;8533;48.426;10.868;2023-11-21T09:18:26;95679.06;;;7.63;100.00
16834;BME280;8533;48.426;10.868;2023-11-21T09:20:52;95548.53;;;6.82;100.00
16834;BME280;8533;48.426;10.868;2023-11-21T09:23:17;95671.25;;;7.63;100.00
16834;BME280;8533;48.426;10.868;2023-11-21T09:25:43;95751.22;;;8.18;100.00
16834;BME280;8533;48.426;10.868;2023-11-21T09:28:11;95753.75;;;8.13;100.00
16834;BME280;8533;48.426;10.868;2023-11-21T09:30:37;95755.72;;;8.22;100.00
16834;BME280;8533;48.426;10.868;2023-11-21T09:33:03;95734.19;;;8.10;100.00
16834;BME280;8533;48.426;10.868;2023-11-21T09:35:33;95752.16;;;8.28;100.00
16834;BME280;8533;48.426;10.868;2023-11-21T09:37:58;95761.25;;;8.26;100.00
16834;BME280;8533;48.426;10.868;2023-11-21T09:40:24;95731.50;;;8.05;100.00
16834;BME280;8533;48.426;10.868;2023-11-21T09:42:54;95473.09;;;6.44;100.00
16834;BME280;8533;48.426;10.868;2023-11-21T09:45:34;95737.09;;;8.14;100.00
16834;BME280;8533;48.426;10.868;2023-11-21T09:48:00;95772.13;;;8.23;100.00
16834;BME280;8533;48.426;10.868;2023-11-21T09:50:26;95743.81;;;8.10;100.00
16834;BME280;8533;48.426;10.868;2023-11-21T09:52:58;95761.16;;;8.21;100.00
16834;BME280;8533;48.426;10.868;2023-11-21T09:55:27;95758.63;;;8.26;100.00
16834;BME280;8533;48.426;10.868;2023-11-21T09:57:57;95735.00;;;7.94;100.00
16834;BME280;8533;48.426;10.868;2023-11-21T10:00:23;95754.00;;;7.94;100.00
16834;BME280;8533;48.426;10.868;2023-11-21T10:02:52;95756.13;;;7.97;100.00
16834;BME280;8533;48.426;10.868;2023-11-21T10:05:18;95617.44;;;7.13;100.00
16834;BME280;8533;48.426;10.868;2023-11-21T10:07:47;95725.66;;;7.98;100.00
16834;BME280;8533;48.426;10.868;2023-11-21T10:10:17;95803.88;;;8.36;100.00
16834;BME280;8533;48.426;10.868;2023-11-21T10:12:48;95617.25;;;7.70;100.00
16834;BME280;8533;48.426;10.868;2023-11-21T10:15:14;95681.97;;;8.22;100.00
16834;BME280;8533;48.426;10.868;2023-11-21T10:17:44;95537.25;;;7.44;100.00
16834;BME280;8533;48.426;10.868;2023-11-21T10:20:11;95751.16;;;8.90;100.00
16834;BME280;8533;48.426;10.868;2023-11-21T10:22:40;95724.63;;;8.76;100.00
16834;BME280;8533;48.426;10.868;2023-11-21T10:25:12;95764.03;;;9.01;100.00
16834;BME280;8533;48.426;10.868;2023-11-21T10:27:40;95758.47;;;9.14;100.00
16834;BME280;8533;48.426;10.868;2023-11-21T10:30:06;95753.53;;;9.18;100.00
16834;BME280;8533;48.426;10.868;2023-11-21T10:32:32;95705.19;;;8.84;100.00
16834;BME280;8533;48.426;10.868;2023-11-21T10:34:59;95756.50;;;9.27;100.00
16834;BME280;8533;48.426;10.868;2023-11-21T10:37:32;95652.50;;;8.60;100.00
16834;BME280;8533;48.426;10.868;2023-11-21T10:39:58;95753.59;;;9.23;100.00
16834;BME280;8533;48.426;10.868;2023-11-21T10:42:24;95758.38;;;9.31;100.00
16834;BME280;8533;48.426;10.868;2023-11-21T10:44:50;95753.44;;;9.35;100.00
16834;BME280;8533;48.426;10.868;2023-11-21T10:47:16;95659.41;;;8.71;100.00
16834;BME280;8533;48.426;10.868;2023-11-21T10:49:44;95749.00;;;9.35;100.00
16834;BME280;8533;48.426;10.868;2023-11-21T10:52:13;95745.19;;;9.16;100.00
16834;BME280;8533;48.426;10.868;2023-11-21T10:54:45;95761.59;;;9.16;100.00
16834;BME280;8533;48.426;10.868;2023-11-21T10:57:13;95743.78;;;9.35;100.00
16834;BME280;8533;48.426;10.868;2023-11-21T10:59:41;95724.47;;;9.31;100.00
16834;BME280;8533;48.426;10.868;2023-11-21T11:02:25;95741.22;;;9.67;100.00
16834;BME280;8533;48.426;10.868;2023-11-21T11:04:53;95739.84;;;9.91;100.00
16834;BME280;8533;48.426;10.868;2023-11-21T11:07:21;95719.03;;;9.70;100.00
16834;BME280;8533;48.426;10.868;2023-11-21T11:09:52;95743.38;;;9.75;100.00
16834;BME280;8533;48.426;10.868;2023-11-21T11:12:18;95745.38;;;9.63;100.00
16834;BME280;8533;48.426;10.868;2023-11-21T11:14:44;95751.53;;;9.52;100.00
16834;BME280;8533;48.426;10.868;2023-11-21T11:17:10;95757.50;;;9.47;100.00
16834;BME280;8533;48.426;10.868;2023-11-21T11:19:36;95722.28;;;9.23;100.00
16834;BME280;8533;48.426;10.868;2023-11-21T11:25:13;95745.31;;;9.58;100.00
16834;BME280;8533;48.426;10.868;2023-11-21T11:30:39;95751.19;;;9.75;100.00
16834;BME280;8533;48.426;10.868;2023-11-21T11:36:06;95742.09;;;9.78;100.00
16834;BME280;8533;48.426;10.868;2023-11-21T11:38:33;95640.31;;;9.19;100.00
16834;BME280;8533;48.426;10.868;2023-11-21T11:41:04;95735.38;;;9.87;100.00
16834;BME280;8533;48.426;10.868;2023-11-21T11:43:30;95740.16;;;10.00;100.00
16834;BME280;8533;48.426;10.868;2023-11-21T11:45:59;95751.44;;;9.74;100.00
16834;BME280;8533;48.426;10.868;2023-11-21T11:48:25;95702.63;;;9.42;100.00
16834;BME280;8533;48.426;10.868;2023-11-21T11:51:03;95755.59;;;9.70;100.00
16834;BME280;8533;48.426;10.868;2023-11-21T11:53:35;95757.88;;;9.61;100.00
16834;BME280;8533;48.426;10.868;2023-11-21T11:56:31;95749.75;;;9.57;100.00
16834;BME280;8533;48.426;10.868;2023-11-21T11:59:02;95760.78;;;9.65;100.00
16834;BME280;8533;48.426;10.868;2023-11-21T12:01:29;95730.94;;;9.55;100.00
16834;BME280;8533;48.426;10.868;2023-11-21T12:06:45;95737.03;;;9.66;100.00
16834;BME280;8533;48.426;10.868;2023-11-21T12:09:22;95748.91;;;9.79;100.00
16834;BME280;8533;48.426;10.868;2023-11-21T12:11:49;95753.13;;;9.85;100.00
16834;BME280;8533;48.426;10.868;2023-11-21T12:14:15;95747.31;;;9.78;100.00
16834;BME280;8533;48.426;10.868;2023-11-21T12:16:41;95743.66;;;9.79;100.00
16834;BME280;8533;48.426;10.868;2023-11-21T12:19:11;95740.50;;;9.77;100.00
16834;BME280;8533;48.426;10.868;2023-11-21T12:21:36;95700.06;;;9.47;100.00
16834;BME280;8533;48.426;10.868;2023-11-21T12:24:02;95744.22;;;9.81;100.00
16834;BME280;8533;48.426;10.868;2023-11-21T12:26:28;95745.53;;;9.83;100.00
16834;BME280;8533;48.426;10.868;2023-11-21T12:28:54;95746.50;;;9.72;100.00
16834;BME280;8533;48.426;10.868;2023-11-21T12:31:22;95738.91;;;9.71;100.00
16834;BME280;8533;48.426;10.868;2023-11-21T12:33:48;95757.00;;;9.50;100.00
16834;BME280;8533;48.426;10.868;2023-11-21T12:36:13;95740.00;;;9.48;100.00
16834;BME280;8533;48.426;10.868;2023-11-21T12:38:39;95741.72;;;9.37;100.00
16834;BME280;8533;48.426;10.868;2023-11-21T12:41:05;95746.91;;;9.32;100.00
16834;BME280;8533;48.426;10.868;2023-11-21T12:43:31;95739.56;;;9.29;100.00
16834;BME280;8533;48.426;10.868;2023-11-21T12:46:07;95748.81;;;9.42;100.00
16834;BME280;8533;48.426;10.868;2023-11-21T12:48:37;95718.22;;;9.32;100.00
16834;BME280;8533;48.426;10.868;2023-11-21T12:51:04;95613.06;;;8.51;100.00
16834;BME280;8533;48.426;10.868;2023-11-21T12:53:30;95757.09;;;9.61;100.00
16834;BME280;8533;48.426;10.868;2023-11-21T12:56:02;95748.66;;;9.80;100.00
16834;BME280;8533;48.426;10.868;2023-11-21T12:58:28;95727.06;;;9.95;100.00
16834;BME280;8533;48.426;10.868;2023-11-21T13:00:56;95729.38;;;10.23;100.00
16834;BME280;8533;48.426;10.868;2023-11-21T13:03:22;95749.50;;;10.70;100.00
16834;BME280;8533;48.426;10.868;2023-11-21T13:05:51;95721.00;;;10.68;100.00
16834;BME280;8533;48.426;10.868;2023-11-21T13:08:19;95728.84;;;10.68;100.00